Fenwick

*Note: All times are displayed in the local standard time of the station location.
**Rain - Equipment is designed to accurately record liquid precipitation; under conditions when precipitation is not in liquid form, the data displayed may not properly reflect rainfall values.

Date Max Temp
(°C)
Min Temp
(°C)
Avg Temp
(°C)
Rain (mm) Avg RH (%)
Fri, Dec 14, 2018 6.0 -1.2 2.8 1.0 92.1
Thu, Dec 13, 2018 5.9 -1.0 1.7 1.0 91.8
Wed, Dec 12, 2018 1.3 -7.0 -1.8 0.2 88.3
Tue, Dec 11, 2018 -0.8 -2.6 -1.8 0.0 85.0
Mon, Dec 10, 2018 1.0 -4.5 -1.6 0.0 82.6
Sun, Dec 09, 2018 0.0 -9.1 -4.3 0.0 78.6
Sat, Dec 08, 2018 -0.9 -8.0 -4.3 0.0 77.6
DateTime Avg Temp (°C) Rain (mm) RH (%)
Sat, Dec 15, 2018 17:00 2.1 0.0 94.8
Sat, Dec 15, 2018 16:00 2.7 0.0 91.6
Sat, Dec 15, 2018 15:00 3.3 0.0 87.3
Sat, Dec 15, 2018 14:00 3.4 0.0 86.0
Sat, Dec 15, 2018 13:00 3.3 0.0 86.3
Sat, Dec 15, 2018 12:00 2.9 0.0 90.4
Sat, Dec 15, 2018 11:00 2.3 0.0 97.8
Sat, Dec 15, 2018 10:00 1.7 0.0 99.9
Sat, Dec 15, 2018 09:00 1.0 0.0 99.9
Sat, Dec 15, 2018 08:00 1.2 0.0 99.9
Sat, Dec 15, 2018 07:00 1.1 0.0 99.9
Sat, Dec 15, 2018 06:00 0.9 0.0 99.9
Sat, Dec 15, 2018 05:00 0.6 0.0 99.9
Sat, Dec 15, 2018 04:00 0.4 0.0 99.9
Sat, Dec 15, 2018 03:00 1.7 0.0 99.9
Sat, Dec 15, 2018 02:00 2.0 0.0 99.4
Sat, Dec 15, 2018 01:00 3.1 0.0 94.0
Sat, Dec 15, 2018 00:00 3.7 0.0 90.5
Fri, Dec 14, 2018 23:00 3.2 0.0 93.4
Fri, Dec 14, 2018 22:00 3.2 0.0 90.7
Fri, Dec 14, 2018 21:00 4.1 0.0 86.6
Fri, Dec 14, 2018 20:00 4.6 0.0 81.6
Fri, Dec 14, 2018 19:00 4.1 0.0 83.5
Fri, Dec 14, 2018 18:00 4.3 0.0 80.4
Fri, Dec 14, 2018 17:00 4.7 0.0 80.0
Fri, Dec 14, 2018 16:00 5.9 0.0 77.4
Fri, Dec 14, 2018 15:00 5.6 0.0 82.3
Fri, Dec 14, 2018 14:00 4.8 0.0 89.7
Fri, Dec 14, 2018 13:00 3.7 0.0 99.2
Fri, Dec 14, 2018 12:00 3.2 0.2 99.9
Fri, Dec 14, 2018 11:00 2.8 0.8 99.9
Fri, Dec 14, 2018 10:00 2.8 0.0 96.0
Fri, Dec 14, 2018 09:00 2.7 0.0 91.9
Fri, Dec 14, 2018 08:00 2.6 0.0 92.2
Fri, Dec 14, 2018 07:00 1.7 0.0 97.3
Fri, Dec 14, 2018 06:00 1.0 0.0 99.8
Fri, Dec 14, 2018 05:00 0.4 0.0 99.9
Fri, Dec 14, 2018 04:00 -0.9 0.0 99.9
Fri, Dec 14, 2018 03:00 -1.1 0.0 99.9
Fri, Dec 14, 2018 02:00 -0.5 0.0 99.9
Fri, Dec 14, 2018 01:00 -0.3 0.0 99.9
Fri, Dec 14, 2018 00:00 0.0 0.0 99.9
Thu, Dec 13, 2018 23:00 -0.6 0.0 99.9
Thu, Dec 13, 2018 22:00 -0.4 0.0 99.9
Thu, Dec 13, 2018 21:00 0.1 0.0 99.0
Thu, Dec 13, 2018 20:00 0.9 0.0 96.4
Thu, Dec 13, 2018 19:00 1.6 0.0 93.0
Thu, Dec 13, 2018 18:00 2.5 0.0 87.7


asterix Register now to access more data! asterix